Terminal Aerodrome Forecast
Issued by NWS

Home | Current Version | Previous Version | Text Only | Print | Product List | Glossary On
Versions: 1 2 3 4 5 6 7 8 9 10 11 12 13 14 15 16 17 18 19 20 21
000
FTUS45 KCYS 291733
TAFLAR
TAF
KLAR 291733Z 2918/3018 05015KT P6SM OVC060
      TEMPO 2918/2920 BKN025
     FM300000 03010KT P6SM BKN080
     FM300300 30006KT P6SM SKC
     FM301500 32020G30KT P6SM SKC=

USA.gov is the U.S. government's official web portal to all federal, state and local government web resources and services.